Time;durP1;ratioP1;P1;durP2;ratioP2;P2;SDS_P1;SDS_P2;PMS_P1;PMS_P2;Temp;Humidity;BMP_temperature;BMP_pressure;BME280_temperature;BME280_humidity;BME280_pressure;Samples;Min_cycle;Max_cycle;Signal;HPM_P1;HPM_P2
2021/06/06 00:00:51;;;;;;;21.43;16.40;;;13.30;99.90;;;;;;2113373;28;20174;-67
2021/06/06 00:01:51;;;;;;;19.95;15.80;;;13.20;99.90;;;;;;2113967;28;20197;-67
2021/06/06 00:02:53;;;;;;;21.27;16.53;;;13.20;99.90;;;;;;2113667;28;20194;-67
2021/06/06 00:03:58;;;;;;;20.20;16.27;;;13.20;99.90;;;;;;2113924;28;20268;-67
2021/06/06 00:04:59;;;;;;;21.42;16.35;;;13.10;99.90;;;;;;2113462;28;20174;-67
2021/06/06 00:06:16;;;;;;;17.23;14.77;;;13.20;99.90;;;;;;2113276;28;20743;-67
2021/06/06 00:07:17;;;;;;;19.77;15.40;;;13.20;99.90;;;;;;2113475;28;20740;-68
2021/06/06 00:08:19;;;;;;;21.93;16.17;;;13.20;99.90;;;;;;2113312;28;20190;-67
2021/06/06 00:09:21;;;;;;;20.55;15.88;;;13.20;99.90;;;;;;2113993;28;20174;-68
2021/06/06 00:10:22;;;;;;;22.35;16.65;;;13.20;99.90;;;;;;2113976;28;20709;-67
2021/06/06 00:11:29;;;;;;;20.77;17.13;;;13.10;99.90;;;;;;2113775;28;20246;-67
2021/06/06 00:12:31;;;;;;;25.23;17.42;;;13.20;99.90;;;;;;2113514;28;20178;-67
2021/06/06 00:13:32;;;;;;;24.75;17.88;;;13.20;99.90;;;;;;2113297;28;20178;-68
2021/06/06 00:14:38;;;;;;;24.08;18.35;;;13.20;99.90;;;;;;2113261;28;20178;-67
2021/06/06 00:15:40;;;;;;;23.77;18.52;;;13.10;99.90;;;;;;2113906;28;20162;-68
2021/06/06 00:16:55;;;;;;;26.13;18.90;;;13.00;99.90;;;;;;2113735;28;20178;-67
2021/06/06 00:17:56;;;;;;;22.55;17.55;;;13.00;99.90;;;;;;2114051;28;20162;-67
2021/06/06 00:18:59;;;;;;;24.10;18.07;;;13.00;99.90;;;;;;2113216;28;20175;-67
2021/06/06 00:19:59;;;;;;;28.23;19.52;;;12.90;99.90;;;;;;2105104;28;20177;-67
2021/06/06 00:21:01;;;;;;;22.87;17.10;;;12.90;99.90;;;;;;2104779;28;20167;-67
2021/06/06 00:22:03;;;;;;;22.92;16.92;;;12.90;99.90;;;;;;2113268;28;20178;-67
2021/06/06 00:23:06;;;;;;;24.85;18.08;;;12.90;99.90;;;;;;2112931;28;20186;-67
2021/06/06 00:24:11;;;;;;;23.08;17.08;;;12.90;99.90;;;;;;2113350;28;20575;-67
2021/06/06 00:25:13;;;;;;;27.60;19.17;;;12.90;99.90;;;;;;2113862;28;20171;-67
2021/06/06 00:26:15;;;;;;;23.98;17.52;;;13.00;99.90;;;;;;2113881;28;20318;-67
2021/06/06 00:27:15;;;;;;;22.30;16.80;;;13.00;99.90;;;;;;2113680;28;20790;-68
2021/06/06 00:28:17;;;;;;;23.90;17.13;;;13.00;99.90;;;;;;2113847;28;20253;-67
2021/06/06 00:29:20;;;;;;;24.48;16.95;;;13.00;99.90;;;;;;2113781;28;20249;-67
2021/06/06 00:30:22;;;;;;;24.80;17.83;;;13.00;99.90;;;;;;2113975;28;20174;-67
2021/06/06 00:31:23;;;;;;;22.27;16.85;;;13.10;99.90;;;;;;2113706;28;20225;-68
2021/06/06 00:32:24;;;;;;;21.00;16.08;;;13.10;99.90;;;;;;2113527;28;20638;-67
2021/06/06 00:33:24;;;;;;;20.27;15.40;;;13.10;99.90;;;;;;2113772;28;20256;-67
2021/06/06 00:34:26;;;;;;;20.97;15.90;;;13.00;99.90;;;;;;2113802;28;20254;-67
2021/06/06 00:35:28;;;;;;;24.20;17.35;;;13.00;99.90;;;;;;2113076;28;20179;-67
2021/06/06 00:36:28;;;;;;;25.60;17.05;;;13.00;99.90;;;;;;2113332;28;20188;-68
2021/06/06 00:37:29;;;;;;;18.87;15.10;;;13.00;99.90;;;;;;2113722;28;20702;-67
2021/06/06 00:38:30;;;;;;;26.23;17.50;;;13.00;99.90;;;;;;2113770;28;20181;-67
2021/06/06 00:39:31;;;;;;;26.53;17.30;;;13.00;99.90;;;;;;2113839;28;20170;-67
2021/06/06 00:40:35;;;;;;;18.10;14.20;;;13.00;99.90;;;;;;2113936;28;20174;-68
2021/06/06 00:41:40;;;;;;;20.20;14.75;;;13.00;99.90;;;;;;2121488;28;20231;-67
2021/06/06 00:42:41;;;;;;;19.98;14.98;;;13.10;99.90;;;;;;2113077;28;20305;-67
2021/06/06 00:43:41;;;;;;;16.47;13.03;;;13.10;99.90;;;;;;2113050;28;20185;-67
2021/06/06 00:44:42;;;;;;;22.13;14.77;;;13.10;99.90;;;;;;2113854;28;20257;-68
2021/06/06 00:45:43;;;;;;;22.23;14.87;;;13.10;99.90;;;;;;2113697;28;20600;-68
2021/06/06 00:46:45;;;;;;;21.60;14.63;;;13.10;99.90;;;;;;2113137;28;20186;-68
2021/06/06 00:47:46;;;;;;;21.40;14.68;;;13.10;99.90;;;;;;2104906;28;20541;-68
2021/06/06 00:48:47;;;;;;;18.30;13.60;;;13.10;99.90;;;;;;2113075;28;20176;-67
2021/06/06 00:49:48;;;;;;;22.73;15.20;;;13.10;99.90;;;;;;2113702;28;20212;-68
2021/06/06 00:50:53;;;;;;;18.47;13.77;;;13.20;99.90;;;;;;2113666;28;20190;-67
2021/06/06 00:51:58;;;;;;;13.32;11.57;;;13.20;99.90;;;;;;2113732;28;20171;-68
2021/06/06 00:53:10;;;;;;;17.30;13.48;;;13.20;99.90;;;;;;2112905;28;20692;-68
2021/06/06 00:54:23;;;;;;;20.58;13.80;;;13.20;99.90;;;;;;2106119;28;20168;-67
2021/06/06 00:55:25;;;;;;;15.93;12.15;;;13.10;99.90;;;;;;2106576;28;20225;-67
2021/06/06 00:56:27;;;;;;;16.00;12.30;;;13.10;99.90;;;;;;2104913;28;20175;-68
2021/06/06 00:57:32;;;;;;;14.93;11.95;;;13.10;99.90;;;;;;2105220;28;20199;-68
2021/06/06 00:58:33;;;;;;;15.57;11.77;;;13.20;99.90;;;;;;2105839;28;20175;-68
2021/06/06 00:59:38;;;;;;;14.02;11.10;;;13.10;99.90;;;;;;2106371;28;20182;-68
2021/06/06 01:00:51;;;;;;;16.27;11.88;;;13.10;99.90;;;;;;2106741;28;20179;-67
2021/06/06 01:01:51;;;;;;;14.27;11.95;;;13.10;99.90;;;;;;2107949;28;20178;-67
2021/06/06 01:02:52;;;;;;;16.50;11.83;;;13.20;99.90;;;;;;2114362;28;20218;-68
2021/06/06 01:03:56;;;;;;;15.83;12.13;;;13.20;99.90;;;;;;2115537;28;20198;-68
2021/06/06 01:04:57;;;;;;;16.65;11.77;;;13.10;99.90;;;;;;2114470;28;20162;-68
2021/06/06 01:05:58;;;;;;;11.90;10.67;;;13.10;99.90;;;;;;2114704;28;20177;-68
2021/06/06 01:06:59;;;;;;;12.00;10.20;;;13.10;99.90;;;;;;2115365;28;20181;-67
2021/06/06 01:08:06;;;;;;;14.87;10.97;;;13.10;99.90;;;;;;2115385;28;20198;-67
2021/06/06 01:09:09;;;;;;;13.98;11.48;;;13.10;99.90;;;;;;2114524;28;20178;-68
2021/06/06 01:10:10;;;;;;;13.52;11.00;;;13.10;99.90;;;;;;2106399;28;20675;-68
2021/06/06 01:11:36;;;;;;;12.65;10.88;;;13.10;99.90;;;;;;2114487;28;20664;-68
2021/06/06 01:12:46;;;;;;;15.70;11.82;;;13.20;99.90;;;;;;2114920;28;20217;-67
2021/06/06 01:13:55;;;;;;;14.13;10.85;;;13.10;99.90;;;;;;2114690;28;20204;-68
2021/06/06 01:15:18;;;;;;;13.82;11.13;;;13.10;99.90;;;;;;2114584;28;20541;-67
2021/06/06 01:16:44;;;;;;;13.98;10.20;;;13.20;99.90;;;;;;2114597;28;20163;-68
2021/06/06 01:18:20;;;;;;;11.75;9.95;;;13.20;99.90;;;;;;2114937;28;20170;-68
2021/06/06 01:19:33;;;;;;;12.95;9.70;;;13.10;99.90;;;;;;2114545;28;20223;-68
2021/06/06 01:21:11;;;;;;;14.27;10.90;;;13.10;99.90;;;;;;2108293;28;20207;-68
2021/06/06 01:22:45;;;;;;;13.50;10.68;;;13.20;99.90;;;;;;2111425;28;20202;-67
2021/06/06 01:24:15;;;;;;;12.75;9.98;;;13.20;99.90;;;;;;2114774;28;20182;-68
2021/06/06 01:25:39;;;;;;;13.65;9.15;;;13.20;99.90;;;;;;2114317;28;20554;-68
2021/06/06 01:27:08;;;;;;;11.52;9.02;;;13.20;99.90;;;;;;2109235;28;20171;-68
2021/06/06 01:28:21;;;;;;;13.23;9.57;;;13.20;99.90;;;;;;2114860;28;20201;-67
2021/06/06 01:29:43;;;;;;;15.55;9.73;;;13.20;99.90;;;;;;2115023;28;20660;-67
2021/06/06 01:30:50;;;;;;;11.98;8.98;;;13.20;99.90;;;;;;2114570;28;20178;-68
2021/06/06 01:31:58;;;;;;;10.70;8.30;;;13.20;99.90;;;;;;2106784;28;20186;-67
2021/06/06 01:33:09;;;;;;;9.98;8.38;;;13.10;99.90;;;;;;2114387;28;20692;-67
2021/06/06 01:34:13;;;;;;;7.93;7.10;;;13.20;99.90;;;;;;2114304;28;20172;-68
2021/06/06 01:35:29;;;;;;;9.63;7.40;;;13.10;99.90;;;;;;2106467;28;20170;-67
2021/06/06 01:36:35;;;;;;;7.85;6.68;;;13.10;99.90;;;;;;2114548;28;20176;-68
2021/06/06 01:37:55;;;;;;;8.75;7.20;;;13.10;99.90;;;;;;2114181;28;20174;-67
2021/06/06 01:39:13;;;;;;;9.43;6.68;;;13.10;99.90;;;;;;2108738;28;20171;-67
2021/06/06 01:40:21;;;;;;;8.38;6.78;;;13.10;99.90;;;;;;2114556;28;20746;-68
2021/06/06 01:41:29;;;;;;;9.00;7.15;;;13.10;99.90;;;;;;2115028;28;20174;-67
2021/06/06 01:42:52;;;;;;;6.60;5.90;;;13.10;99.90;;;;;;2114023;28;20194;-67
2021/06/06 01:43:56;;;;;;;6.50;5.82;;;13.10;99.90;;;;;;2109103;28;20281;-68
2021/06/06 01:45:07;;;;;;;7.85;6.53;;;13.10;99.90;;;;;;2106446;28;20167;-67
2021/06/06 01:46:23;;;;;;;7.28;5.72;;;13.10;99.90;;;;;;2107229;28;20175;-67
2021/06/06 01:47:26;;;;;;;8.25;6.43;;;13.10;99.90;;;;;;2108142;28;20178;-67
2021/06/06 01:48:29;;;;;;;7.40;6.53;;;13.00;99.90;;;;;;2106171;28;20198;-68
2021/06/06 01:49:32;;;;;;;6.57;5.63;;;13.00;99.90;;;;;;2106191;28;20175;-68
2021/06/06 01:50:40;;;;;;;6.97;5.93;;;13.00;99.90;;;;;;2105869;28;20175;-68
2021/06/06 01:51:46;;;;;;;7.78;6.10;;;13.10;99.90;;;;;;2106869;28;20210;-67
2021/06/06 01:52:49;;;;;;;8.27;6.22;;;13.10;99.90;;;;;;2106353;28;20221;-67
2021/06/06 01:53:50;;;;;;;6.95;6.25;;;13.10;99.90;;;;;;2102753;28;20191;-67
2021/06/06 01:54:52;;;;;;;8.25;6.97;;;13.10;99.90;;;;;;2105897;28;20167;-68
2021/06/06 01:55:59;;;;;;;7.35;6.50;;;13.10;99.90;;;;;;2105874;28;20167;-68
2021/06/06 01:57:00;;;;;;;6.40;5.80;;;13.10;99.90;;;;;;2106642;28;20197;-67
2021/06/06 01:58:06;;;;;;;7.30;6.23;;;13.10;99.90;;;;;;2105979;28;20265;-67
2021/06/06 01:59:15;;;;;;;6.50;5.70;;;13.10;99.90;;;;;;2106446;28;20163;-68
2021/06/06 02:00:27;;;;;;;7.30;5.68;;;13.10;99.90;;;;;;2106909;28;20159;-67
2021/06/06 02:01:29;;;;;;;6.82;6.00;;;13.10;99.90;;;;;;2114371;28;20170;-67
2021/06/06 02:02:30;;;;;;;6.63;4.82;;;13.10;99.90;;;;;;2113818;28;20182;-67
2021/06/06 02:03:31;;;;;;;5.78;4.88;;;13.10;99.90;;;;;;2105731;28;20178;-68
2021/06/06 02:04:35;;;;;;;6.55;5.68;;;13.10;99.90;;;;;;2114128;28;20189;-68
2021/06/06 02:05:35;;;;;;;5.63;4.75;;;13.10;99.90;;;;;;2114212;28;20182;-67
2021/06/06 02:06:47;;;;;;;5.97;4.93;;;13.10;99.90;;;;;;2114205;28;20182;-67
2021/06/06 02:07:51;;;;;;;6.10;5.13;;;13.10;99.90;;;;;;2114308;28;20208;-68
2021/06/06 02:08:52;;;;;;;6.68;5.00;;;13.00;99.90;;;;;;2105997;28;20637;-67
2021/06/06 02:10:19;;;;;;;5.10;4.60;;;13.00;99.90;;;;;;2114127;28;20170;-67
2021/06/06 02:11:29;;;;;;;5.65;4.93;;;12.90;99.90;;;;;;2114320;28;20263;-68
2021/06/06 02:12:31;;;;;;;5.95;5.20;;;12.90;99.90;;;;;;2113824;28;20744;-68
2021/06/06 02:13:44;;;;;;;5.72;5.18;;;12.90;99.90;;;;;;2105960;28;20171;-68
2021/06/06 02:14:47;;;;;;;5.03;4.53;;;12.90;99.90;;;;;;2107319;28;20182;-67
2021/06/06 02:15:53;;;;;;;4.93;4.50;;;12.90;99.90;;;;;;2105647;28;20672;-68
2021/06/06 02:16:59;;;;;;;5.18;4.68;;;12.90;99.90;;;;;;2106388;28;20224;-67
2021/06/06 02:18:02;;;;;;;5.82;4.78;;;13.00;99.90;;;;;;2114162;28;20664;-67
2021/06/06 02:19:05;;;;;;;6.82;4.95;;;12.90;99.90;;;;;;2114142;28;20167;-67
2021/06/06 02:20:09;;;;;;;5.20;4.70;;;13.00;99.90;;;;;;2105717;28;20261;-67
2021/06/06 02:21:11;;;;;;;5.32;4.82;;;13.00;99.90;;;;;;2114090;28;20257;-67
2021/06/06 02:22:15;;;;;;;5.03;4.53;;;13.00;99.90;;;;;;2114471;28;20252;-67
2021/06/06 02:23:24;;;;;;;5.47;4.82;;;13.00;99.90;;;;;;2114150;28;20170;-67
2021/06/06 02:24:27;;;;;;;5.18;4.68;;;13.00;99.90;;;;;;2106981;28;20756;-67
2021/06/06 02:25:29;;;;;;;5.50;5.00;;;13.00;99.90;;;;;;2113978;28;20175;-67
2021/06/06 02:26:32;;;;;;;5.55;5.05;;;13.00;99.90;;;;;;2105544;28;20175;-67
2021/06/06 02:27:45;;;;;;;6.20;5.00;;;13.00;99.90;;;;;;2113981;28;20213;-67
2021/06/06 02:29:10;;;;;;;6.13;5.53;;;13.00;99.90;;;;;;2114093;28;20185;-67
2021/06/06 02:30:14;;;;;;;6.05;5.43;;;13.00;99.90;;;;;;2108776;28;20565;-67
2021/06/06 02:31:29;;;;;;;6.00;5.40;;;13.00;99.90;;;;;;2113992;28;20210;-67
2021/06/06 02:32:39;;;;;;;5.47;4.97;;;13.00;99.90;;;;;;2114241;28;20166;-67
2021/06/06 02:33:53;;;;;;;4.82;4.32;;;13.00;99.90;;;;;;2114029;28;20200;-67
2021/06/06 02:35:02;;;;;;;5.43;4.78;;;12.90;99.90;;;;;;2107442;28;20228;-67
2021/06/06 02:36:11;;;;;;;4.97;4.47;;;12.90;99.90;;;;;;2114058;28;20162;-67
2021/06/06 02:37:42;;;;;;;5.00;4.50;;;13.00;99.90;;;;;;2113930;28;20159;-67
2021/06/06 02:39:02;;;;;;;4.80;4.40;;;12.90;99.90;;;;;;2109186;28;20191;-67
2021/06/06 02:40:16;;;;;;;4.85;4.35;;;12.90;99.90;;;;;;2114075;28;20174;-67
2021/06/06 02:41:26;;;;;;;5.63;5.03;;;12.90;99.90;;;;;;2114022;28;20166;-67
2021/06/06 02:42:34;;;;;;;5.95;4.90;;;12.90;99.90;;;;;;2106347;28;20182;-67
2021/06/06 02:43:48;;;;;;;5.60;4.78;;;12.90;99.90;;;;;;2106366;28;20167;-67
2021/06/06 02:45:08;;;;;;;5.38;4.25;;;12.90;99.90;;;;;;2107343;28;20615;-68
2021/06/06 02:46:11;;;;;;;7.28;4.50;;;12.90;99.90;;;;;;2096594;28;20182;-67
2021/06/06 02:47:16;;;;;;;5.10;4.45;;;12.90;99.90;;;;;;2092182;28;20684;-67
2021/06/06 02:48:27;;;;;;;5.20;4.70;;;12.90;99.90;;;;;;2096631;28;20252;-68
2021/06/06 02:49:35;;;;;;;4.22;3.83;;;12.80;99.90;;;;;;2098544;28;20201;-67
2021/06/06 02:50:40;;;;;;;4.82;4.15;;;12.80;99.90;;;;;;2096843;28;20179;-67
2021/06/06 02:51:48;;;;;;;5.95;4.50;;;12.80;99.90;;;;;;2097077;28;20795;-67
2021/06/06 02:53:01;;;;;;;4.20;3.80;;;12.90;99.90;;;;;;2096604;28;20791;-67
2021/06/06 02:54:09;;;;;;;4.00;3.70;;;12.80;99.90;;;;;;2090425;28;20714;-67
2021/06/06 02:55:22;;;;;;;4.45;4.05;;;12.80;99.90;;;;;;2089807;28;20694;-67
2021/06/06 02:56:27;;;;;;;4.40;4.00;;;12.80;99.90;;;;;;2098652;28;20164;-67
2021/06/06 02:57:32;;;;;;;4.18;3.78;;;12.80;99.90;;;;;;2088677;28;20791;-67
2021/06/06 02:58:42;;;;;;;4.20;3.80;;;12.80;99.90;;;;;;2089788;28;20176;-68
2021/06/06 02:59:49;;;;;;;5.90;4.40;;;12.80;99.90;;;;;;2105441;28;20584;-67
2021/06/06 03:00:57;;;;;;;4.20;3.80;;;12.80;99.90;;;;;;2105192;28;20555;-67
2021/06/06 03:02:03;;;;;;;4.38;3.95;;;12.80;99.90;;;;;;2104504;28;20178;-67
2021/06/06 03:03:11;;;;;;;4.35;3.40;;;12.80;99.90;;;;;;2088268;28;20358;-67
2021/06/06 03:04:16;;;;;;;4.13;3.65;;;12.80;99.90;;;;;;2082280;28;20177;-68
2021/06/06 03:05:22;;;;;;;4.30;3.90;;;12.80;99.90;;;;;;2089164;28;20176;-67
2021/06/06 03:06:35;;;;;;;4.05;3.67;;;12.80;99.90;;;;;;2089357;28;20614;-67
2021/06/06 03:07:43;;;;;;;4.03;3.50;;;12.80;99.90;;;;;;2098681;28;20276;-68
2021/06/06 03:08:44;;;;;;;4.80;3.72;;;12.80;99.90;;;;;;2105220;28;20240;-67
2021/06/06 03:09:45;;;;;;;4.20;3.60;;;12.80;99.90;;;;;;2105099;28;20175;-67
2021/06/06 03:10:46;;;;;;;4.10;3.40;;;12.80;99.90;;;;;;2096761;28;20214;-67
2021/06/06 03:11:51;;;;;;;3.72;3.40;;;12.90;99.90;;;;;;2088579;28;20212;-68
2021/06/06 03:12:55;;;;;;;4.40;4.00;;;12.80;99.90;;;;;;2088622;28;20188;-68
2021/06/06 03:14:07;;;;;;;3.95;3.65;;;12.80;99.90;;;;;;2089086;28;20204;-67
2021/06/06 03:15:12;;;;;;;4.03;3.63;;;12.80;99.90;;;;;;2090049;28;20591;-67
2021/06/06 03:16:16;;;;;;;4.20;3.80;;;12.80;99.90;;;;;;2097595;28;20254;-67
2021/06/06 03:17:31;;;;;;;4.10;3.70;;;12.80;99.90;;;;;;2105128;28;20171;-67
2021/06/06 03:18:37;;;;;;;4.40;4.00;;;12.80;99.90;;;;;;2096882;28;20179;-68
2021/06/06 03:19:48;;;;;;;4.20;3.80;;;12.80;99.90;;;;;;2097401;28;20176;-67
2021/06/06 03:20:54;;;;;;;6.13;3.80;;;12.80;99.90;;;;;;2103696;28;20171;-67
2021/06/06 03:21:55;;;;;;;4.28;3.88;;;12.80;99.90;;;;;;2096529;28;20171;-68
2021/06/06 03:22:59;;;;;;;3.80;3.42;;;12.70;99.90;;;;;;2088262;28;20234;-67
2021/06/06 03:24:10;;;;;;;3.70;3.40;;;12.70;99.90;;;;;;2088866;28;20168;-67
2021/06/06 03:25:28;;;;;;;4.47;4.07;;;12.70;99.90;;;;;;2096999;28;20164;-67
2021/06/06 03:26:34;;;;;;;4.07;3.78;;;12.70;99.90;;;;;;2105191;28;20253;-67
2021/06/06 03:27:41;;;;;;;3.95;3.42;;;12.80;99.90;;;;;;2096795;28;20192;-67
2021/06/06 03:28:43;;;;;;;4.10;3.72;;;12.80;99.90;;;;;;2089516;28;20181;-67
2021/06/06 03:29:52;;;;;;;4.28;3.72;;;12.70;99.90;;;;;;2096772;28;20203;-67
2021/06/06 03:31:02;;;;;;;4.30;3.90;;;12.80;99.90;;;;;;2105190;28;20233;-67
2021/06/06 03:32:08;;;;;;;5.20;4.10;;;12.80;99.90;;;;;;2088418;28;20193;-67
2021/06/06 03:33:15;;;;;;;5.00;4.18;;;12.70;99.90;;;;;;2088820;28;20188;-67
2021/06/06 03:34:17;;;;;;;4.63;4.10;;;12.80;99.90;;;;;;2089336;28;20209;-67
2021/06/06 03:35:18;;;;;;;3.95;3.55;;;12.80;99.90;;;;;;2096789;28;20164;-67
2021/06/06 03:36:26;;;;;;;4.53;3.67;;;12.70;99.90;;;;;;2097214;28;20181;-67
2021/06/06 03:37:27;;;;;;;5.40;4.15;;;12.70;99.90;;;;;;2096789;28;20243;-67
2021/06/06 03:38:28;;;;;;;4.30;3.90;;;12.70;99.90;;;;;;2088519;28;20175;-67
2021/06/06 03:39:29;;;;;;;4.47;4.07;;;12.70;99.90;;;;;;2096748;28;20207;-67
2021/06/06 03:40:35;;;;;;;4.28;3.88;;;12.70;99.90;;;;;;2097209;28;20168;-67
2021/06/06 03:41:36;;;;;;;4.30;3.67;;;12.70;99.90;;;;;;2097293;28;20262;-67
2021/06/06 03:42:38;;;;;;;4.68;4.20;;;12.70;99.90;;;;;;2096889;28;20274;-67
2021/06/06 03:43:39;;;;;;;4.45;4.05;;;12.80;99.90;;;;;;2097360;28;20259;-67
2021/06/06 03:44:40;;;;;;;4.73;4.33;;;12.70;99.90;;;;;;2097265;28;20176;-67
2021/06/06 03:45:41;;;;;;;4.23;3.83;;;12.70;99.90;;;;;;2097348;28;20715;-67
2021/06/06 03:46:41;;;;;;;4.60;3.83;;;12.70;99.90;;;;;;2097223;28;20167;-67
2021/06/06 03:47:42;;;;;;;5.37;4.10;;;12.70;99.90;;;;;;2097226;28;20861;-67
2021/06/06 03:48:43;;;;;;;4.83;4.40;;;12.70;99.90;;;;;;2097100;28;20187;-67
2021/06/06 03:49:44;;;;;;;4.47;4.07;;;12.70;99.90;;;;;;2097165;28;20421;-67
2021/06/06 03:50:46;;;;;;;4.93;4.15;;;12.80;99.90;;;;;;2096966;28;20216;-67
2021/06/06 03:51:48;;;;;;;4.72;4.05;;;12.80;99.90;;;;;;2104751;28;20211;-67
2021/06/06 03:52:49;;;;;;;4.97;4.47;;;12.80;99.90;;;;;;2107001;28;20203;-68
2021/06/06 03:53:50;;;;;;;5.35;4.47;;;12.80;99.90;;;;;;2105574;28;20186;-67
2021/06/06 03:54:53;;;;;;;4.50;4.10;;;12.80;99.90;;;;;;2104788;28;20175;-67
2021/06/06 03:55:54;;;;;;;5.25;4.40;;;12.80;99.90;;;;;;2104873;28;20634;-67
2021/06/06 03:56:55;;;;;;;4.47;3.72;;;12.80;99.90;;;;;;2105427;28;20167;-67
2021/06/06 03:57:56;;;;;;;5.15;3.85;;;12.80;99.90;;;;;;2105439;28;20163;-67
2021/06/06 03:58:57;;;;;;;4.43;3.90;;;12.80;99.90;;;;;;2105344;28;20637;-67
2021/06/06 03:59:59;;;;;;;6.43;4.60;;;12.80;99.90;;;;;;2105455;28;20197;-68
2021/06/06 04:00:59;;;;;;;6.05;4.45;;;12.90;99.90;;;;;;2105406;28;20637;-67
2021/06/06 04:02:00;;;;;;;4.53;4.07;;;12.90;99.90;;;;;;2105500;28;20182;-67
2021/06/06 04:03:02;;;;;;;6.03;4.53;;;12.90;99.90;;;;;;2104366;28;20301;-68
2021/06/06 04:04:03;;;;;;;4.30;3.90;;;12.90;99.90;;;;;;2104984;28;20175;-67
2021/06/06 04:05:04;;;;;;;4.80;3.90;;;12.90;99.90;;;;;;2105281;28;20167;-68
2021/06/06 04:06:05;;;;;;;4.45;4.05;;;12.90;99.90;;;;;;2105331;28;20900;-67
2021/06/06 04:07:06;;;;;;;4.72;4.20;;;12.90;99.90;;;;;;2104657;28;20629;-67
2021/06/06 04:08:08;;;;;;;3.67;3.27;;;12.90;99.90;;;;;;2104870;28;20194;-68
2021/06/06 04:09:09;;;;;;;5.88;4.05;;;13.00;99.90;;;;;;2105334;28;20263;-67
2021/06/06 04:10:11;;;;;;;5.32;4.10;;;12.90;99.90;;;;;;2104873;28;20171;-67
2021/06/06 04:11:12;;;;;;;4.30;3.85;;;13.00;99.90;;;;;;2104627;28;20630;-68
2021/06/06 04:12:13;;;;;;;4.78;3.90;;;13.00;99.90;;;;;;2105425;28;20206;-67
2021/06/06 04:13:14;;;;;;;3.80;3.45;;;13.10;99.90;;;;;;2105027;28;20183;-67
2021/06/06 04:14:15;;;;;;;4.70;4.13;;;13.10;99.90;;;;;;2105546;28;20187;-67
2021/06/06 04:15:16;;;;;;;4.00;3.60;;;13.20;99.90;;;;;;2104713;28;20164;-67
2021/06/06 04:16:19;;;;;;;3.88;3.58;;;13.20;99.90;;;;;;2096528;28;20638;-67
2021/06/06 04:17:20;;;;;;;4.32;3.92;;;13.20;99.90;;;;;;2104783;28;20179;-67
2021/06/06 04:18:29;;;;;;;4.40;3.87;;;13.10;99.90;;;;;;2104787;28;20167;-67
2021/06/06 04:19:30;;;;;;;3.92;3.53;;;13.20;99.90;;;;;;2104842;28;20174;-67
2021/06/06 04:20:30;;;;;;;4.10;3.57;;;13.20;99.90;;;;;;2105441;28;20163;-67
2021/06/06 04:21:33;;;;;;;4.13;3.73;;;13.20;99.90;;;;;;2105315;28;20561;-67
2021/06/06 04:22:35;;;;;;;4.15;3.75;;;13.20;99.90;;;;;;2104523;28;20197;-67
2021/06/06 04:23:36;;;;;;;3.47;3.17;;;13.30;99.90;;;;;;2104757;28;20715;-67
2021/06/06 04:24:37;;;;;;;3.35;3.05;;;13.20;99.90;;;;;;2105381;28;20199;-67
2021/06/06 04:25:38;;;;;;;4.93;3.40;;;13.20;99.90;;;;;;2104784;28;20340;-68
2021/06/06 04:26:40;;;;;;;4.70;2.70;;;13.20;99.90;;;;;;2104830;28;20702;-68
2021/06/06 04:27:41;;;;;;;3.17;2.80;;;13.20;99.90;;;;;;2105390;28;20233;-67
2021/06/06 04:28:42;;;;;;;3.28;2.97;;;13.20;99.90;;;;;;2105444;28;20206;-67
2021/06/06 04:29:45;;;;;;;3.67;3.20;;;13.20;99.90;;;;;;2105437;28;20190;-67
2021/06/06 04:30:46;;;;;;;3.35;3.03;;;13.20;99.90;;;;;;2105424;28;20220;-67
2021/06/06 04:31:46;;;;;;;2.87;2.67;;;13.20;99.90;;;;;;2105363;28;20716;-67
2021/06/06 04:32:47;;;;;;;3.70;3.37;;;13.20;99.90;;;;;;2104972;28;20191;-67
2021/06/06 04:33:48;;;;;;;3.20;2.90;;;13.30;99.90;;;;;;2106359;28;20232;-67
2021/06/06 04:34:49;;;;;;;3.30;3.00;;;13.20;99.90;;;;;;2106830;28;20170;-67
2021/06/06 04:35:50;;;;;;;3.33;3.03;;;13.20;99.90;;;;;;2106425;28;20175;-67
2021/06/06 04:36:51;;;;;;;3.85;3.15;;;13.20;99.90;;;;;;2106283;28;20168;-67
2021/06/06 04:37:52;;;;;;;3.65;3.35;;;13.20;99.90;;;;;;2107045;28;20205;-67
2021/06/06 04:38:53;;;;;;;3.75;3.08;;;13.20;99.90;;;;;;2106894;28;20170;-67
2021/06/06 04:39:54;;;;;;;3.00;2.70;;;13.30;99.90;;;;;;2114641;28;20687;-67
2021/06/06 04:40:58;;;;;;;3.30;3.00;;;13.20;99.90;;;;;;2114796;28;20179;-67
2021/06/06 04:41:58;;;;;;;5.07;3.20;;;13.20;99.90;;;;;;2106990;28;20189;-67
2021/06/06 04:43:01;;;;;;;3.73;2.90;;;13.20;99.90;;;;;;2105894;28;20182;-67
2021/06/06 04:44:01;;;;;;;3.60;3.30;;;13.20;99.90;;;;;;2106358;28;20216;-67
2021/06/06 04:45:07;;;;;;;4.70;3.53;;;13.30;99.90;;;;;;2106805;28;20271;-67
2021/06/06 04:46:08;;;;;;;2.80;2.60;;;13.30;99.90;;;;;;2101589;28;20546;-67
2021/06/06 04:47:10;;;;;;;2.92;2.58;;;13.40;99.90;;;;;;2098147;28;20233;-67
2021/06/06 04:48:35;;;;;;;3.30;3.00;;;13.30;99.90;;;;;;2099610;28;20160;-67
2021/06/06 04:49:39;;;;;;;2.83;2.63;;;13.50;99.90;;;;;;2103132;28;20693;-67
2021/06/06 04:50:41;;;;;;;3.05;2.75;;;13.50;99.90;;;;;;2098148;28;20194;-67
2021/06/06 04:51:43;;;;;;;3.20;2.90;;;13.50;99.90;;;;;;2098318;28;20211;-67
2021/06/06 04:52:44;;;;;;;3.35;2.78;;;13.50;99.90;;;;;;2098003;28;20199;-67
2021/06/06 04:53:47;;;;;;;3.20;2.90;;;13.50;99.90;;;;;;2106138;28;20178;-67
2021/06/06 04:54:48;;;;;;;2.85;2.30;;;13.50;99.90;;;;;;2105808;28;20424;-67
2021/06/06 04:55:51;;;;;;;3.00;2.80;;;13.50;99.90;;;;;;2098310;28;20531;-67
2021/06/06 04:56:52;;;;;;;2.90;2.70;;;13.40;99.90;;;;;;2098295;28;20210;-67
2021/06/06 04:57:52;;;;;;;3.40;3.10;;;13.30;99.90;;;;;;2098341;28;20172;-67
2021/06/06 04:58:56;;;;;;;2.87;2.67;;;13.30;99.90;;;;;;2098391;28;20300;-67
2021/06/06 04:59:56;;;;;;;3.30;3.00;;;13.30;99.90;;;;;;2098307;28;20164;-68
2021/06/06 05:00:58;;;;;;;3.13;2.90;;;13.20;99.90;;;;;;2098457;28;20179;-67
2021/06/06 05:01:58;;;;;;;3.10;2.90;;;13.20;99.90;;;;;;2098147;28;20225;-67
2021/06/06 05:03:00;;;;;;;3.40;3.10;;;13.20;99.90;;;;;;2098045;28;20224;-67
2021/06/06 05:04:00;;;;;;;3.70;3.40;;;13.20;99.90;;;;;;2098190;28;20164;-67
2021/06/06 05:05:01;;;;;;;3.43;3.10;;;13.10;99.90;;;;;;2098353;28;20168;-67
2021/06/06 05:06:02;;;;;;;3.53;3.20;;;13.20;99.90;;;;;;2098208;28;20226;-68
2021/06/06 05:07:04;;;;;;;4.50;3.72;;;13.20;99.90;;;;;;2098267;28;21082;-67
2021/06/06 05:08:06;;;;;;;4.18;3.78;;;13.20;99.90;;;;;;2098169;28;20176;-66
2021/06/06 05:09:08;;;;;;;4.32;3.92;;;13.20;99.90;;;;;;2098263;28;20176;-67
2021/06/06 05:10:09;;;;;;;4.70;3.60;;;13.30;99.90;;;;;;2098151;28;20168;-67
2021/06/06 05:11:10;;;;;;;4.10;3.70;;;13.40;99.90;;;;;;2098169;28;20175;-67
2021/06/06 05:12:11;;;;;;;5.47;4.17;;;13.40;99.90;;;;;;2098009;28;20172;-67
2021/06/06 05:13:12;;;;;;;6.87;3.63;;;13.40;99.90;;;;;;2098218;28;20195;-67
2021/06/06 05:14:13;;;;;;;5.00;4.38;;;13.40;99.90;;;;;;2098229;28;20204;-67
2021/06/06 05:15:15;;;;;;;5.07;4.57;;;13.40;99.90;;;;;;2098207;28;20649;-67
2021/06/06 05:16:16;;;;;;;5.38;4.88;;;13.30;99.90;;;;;;2098131;28;20245;-67
2021/06/06 05:17:16;;;;;;;7.67;5.00;;;13.30;99.90;;;;;;2098223;28;20247;-67
2021/06/06 05:18:19;;;;;;;5.90;5.40;;;13.30;99.90;;;;;;2098172;28;20187;-67
2021/06/06 05:19:20;;;;;;;7.03;5.80;;;13.20;99.90;;;;;;2098190;28;20188;-67
2021/06/06 05:20:33;;;;;;;7.63;5.90;;;13.20;99.90;;;;;;2098087;28;20175;-67
2021/06/06 05:21:34;;;;;;;8.38;6.18;;;13.20;99.90;;;;;;2098217;28;20258;-67
2021/06/06 05:22:35;;;;;;;6.55;5.93;;;13.20;99.90;;;;;;2097762;28;20229;-67
2021/06/06 05:23:35;;;;;;;9.23;6.77;;;13.10;99.90;;;;;;2098113;28;20210;-67
2021/06/06 05:24:36;;;;;;;6.37;5.77;;;13.20;99.90;;;;;;2098038;28;20587;-67
2021/06/06 05:25:40;;;;;;;7.00;6.13;;;13.10;99.90;;;;;;2098180;28;20175;-67
2021/06/06 05:26:41;;;;;;;6.25;5.65;;;13.20;99.90;;;;;;2097905;28;20259;-67
2021/06/06 05:27:42;;;;;;;6.63;6.03;;;13.20;99.90;;;;;;2098137;28;20175;-67
2021/06/06 05:28:45;;;;;;;5.80;5.27;;;13.20;99.90;;;;;;2097967;28;20335;-67
2021/06/06 05:29:45;;;;;;;6.57;5.40;;;13.20;99.90;;;;;;2105839;28;20175;-67
2021/06/06 05:30:47;;;;;;;5.90;4.60;;;13.20;99.90;;;;;;2105745;28;20167;-67
2021/06/06 05:31:49;;;;;;;4.18;3.75;;;13.30;99.90;;;;;;2098010;28;20685;-67
2021/06/06 05:32:51;;;;;;;5.13;4.20;;;13.30;99.90;;;;;;2097682;28;20203;-67
2021/06/06 05:33:52;;;;;;;5.05;4.55;;;13.30;99.90;;;;;;2105841;28;20175;-67
2021/06/06 05:34:53;;;;;;;6.23;4.63;;;13.40;99.90;;;;;;2097408;28;20179;-67
2021/06/06 05:35:55;;;;;;;5.27;4.77;;;13.40;99.90;;;;;;2097465;28;20187;-67
2021/06/06 05:36:55;;;;;;;4.85;3.70;;;13.50;99.90;;;;;;2097944;28;20164;-67